<< Go Back

Superhero 5k
Date: May. 4, 2013
Results by Everal Race Management
Contact for Race Timing

Superhero 5k
5k
Age Group Results
May 04, 2013

--------------------------------------------------------------------------------
Results By Everal Race Management
--------------------------------------------------------------------------------

Female Overall Winners
Total
Place Name City Bib No Age Overall Time Pace
1 Lisa Manausso La Salle MI 507 48 15 24:53 8:02/M

Male Overall Winners
Total
Place Name City Bib No Age Overall Time Pace
1 Anthony Webb Monroe MI 498 24 1 18:56 6:06/M

Female Masters Winners
Total
Place Name City Bib No Age Overall Time Pace
1 Denise Dashner Temperance MI 9 43 16 24:58 8:03/M

Male Masters Winners
Total
Place Name City Bib No Age Overall Time Pace
1 John Garrett Monroe MI 12 40 2 19:34 6:19/M

No age provided
Total
Place Name City Bib No Age Overall Time Pace
1 Lauren Lebrun 25 0 68 38:15 12:20/M

No age provided
Total
Place Name City Bib No Age Overall Time Pace
1 Patrick Livernois 26 0 14 24:41 7:58/M
2 John Lawson Jr Monroe MI 492 0 107 59:59 19:21/M

Female 10 & under
Total
Place Name City Bib No Age Overall Time Pace
1 Brynn Trouten Monroe MI 458 9 41 30:11 9:44/M
2 Zoey Smith Monroe MI 417 10 69 38:22 12:23/M
3 Ellie Smith Monroe MI 416 8 74 38:39 12:28/M

Male 10 & under
Total
Place Name City Bib No Age Overall Time Pace
1 Caleb Ferguson New Boston MI 500 9 39 29:07 9:24/M

Female 11 to 12
Total
Place Name City Bib No Age Overall Time Pace
1 Adney Richards Monroe MI 515 12 66 38:14 12:20/M

Male 11 to 12
Total
Place Name City Bib No Age Overall Time Pace
1 Joshua Brott Rockwood MI 107 11 37 28:51 9:18/M

Female 13 to 14
Total
Place Name City Bib No Age Overall Time Pace
1 Seryn Richards Monroe MI 508 14 67 38:14 12:20/M

Male 13 to 14
Total
Place Name City Bib No Age Overall Time Pace
1 Keaton Marks Monroe MI 200 14 19 25:52 8:21/M
2 Dillon Brott Rockwood MI 102 13 80 40:38 13:06/M

Male 15 to 16
Total
Place Name City Bib No Age Overall Time Pace
1 Tommy Brandys Monroe MI 1 16 5 21:20 6:53/M
2 Zacary Pollauf Oregon OH 314 15 6 21:29 6:56/M
3 Justin McDonagh Monroe MI 32 15 46 31:43 10:14/M

Female 17 to 19
Total
Place Name City Bib No Age Overall Time Pace
1 Jennifer Slicoinski Monroe MI 516 19 82 42:15 13:38/M

Female 20 to 29
Total
Place Name City Bib No Age Overall Time Pace
1 Rachel Bates Monroe MI 93 29 18 25:41 8:17/M
2 Jessie Devito Plymouth MI 140 28 33 28:30 9:12/M
3 Emily Abela Carleton MI 52 29 35 28:39 9:15/M
4 Nora Isack Ann Arbor MI 185 26 38 29:02 9:22/M
5 Katelyn Stringham Monroe MI 447 22 49 32:44 10:34/M
6 Carrie Reed Monroe MI 329 23 54 34:18 11:04/M
7 Ashley Begeman Trenton MI 497 22 63 37:56 12:14/M
8 Sarah Angelocci Monroe MI 54 29 72 38:29 12:25/M
9 Whitney Perry Monroe MI 254 25 73 38:36 12:27/M
10 Katelyn Pierce Monroe MI 286 26 77 40:22 13:01/M
11 Elizabeth Heskett Saline MI 168 27 84 42:35 13:44/M
12 Michelle Lamour Monroe MI 190 25 85 46:00 14:50/M
13 Natasha Hawkins Toledo OH 163 27 98 59:57 19:20/M
14 Danielle Shordt Toledo OH 399 26 101 59:57 19:20/M

Male 20 to 29
Total
Place Name City Bib No Age Overall Time Pace
1 Robert Lieto Monroe MI 194 26 4 21:08 6:49/M
2 Steve Zwolinski Ann Arbor MI 491 28 31 28:08 9:05/M
3 Josh Errickson Ann Arbor MI 142 29 32 28:29 9:11/M
4 Bryan Miller Monroe MI 244 27 36 28:50 9:18/M
5 Jarod Foshag Livonia MI 146 26 71 38:29 12:25/M
6 Joseph Coutcher Lambertville MI 131 29 96 59:53 19:19/M

Female 30 to 39
Total
Place Name City Bib No Age Overall Time Pace
1 Stacey Roof Monroe MI 349 30 22 26:29 8:33/M
2 Kristine Linster Monroe MI 196 33 25 27:03 8:44/M
3 Jodi Ihrig Monroe MI 184 36 47 32:24 10:27/M
4 Elizabeth Lukacs Monroe MI 198 32 50 32:56 10:37/M
5 Jeannie Brott Rockwood MI 105 37 51 33:06 10:41/M
6 Connie Fullerton West Bloomfield MI 150 30 53 34:14 11:03/M
7 Katrina Peters Monroe MI 278 34 55 34:32 11:08/M
8 Anna Hehl-Bisson Monroe MI 167 31 56 34:57 11:16/M
9 Holly Sabbadini Monroe MI 368 36 58 35:14 11:22/M
10 Jillian Manore Lambertville MI 199 33 59 35:19 11:24/M
11 Jill Mazzola Ottawa Hills OH 208 39 60 35:29 11:27/M
12 Julie Venier La Salle MI 480 36 64 38:13 12:20/M
13 Alice Reaume Monroe MI 326 35 76 40:04 12:55/M
14 Amy Waldron Monroe MI 484 37 83 42:30 13:43/M
15 Tara Craiger Maybee MI 137 32 89 47:05 15:11/M
16 Tabitha Schneider Temperance MI 378 33 102 59:58 19:21/M
17 Lisa Groulx Monroe MI 162 36 105 59:58 19:21/M

Male 30 to 39
Total
Place Name City Bib No Age Overall Time Pace
1 Gerry Mazzola Ottawa Hills OH 206 38 3 19:59 6:27/M
2 Mike Sherman Ypsilanti MI 398 30 9 23:35 7:36/M
3 Jason Linster Monroe MI 195 34 26 27:03 8:44/M
4 Scott McCarty Monroe MI 212 34 28 27:34 8:54/M
5 Matthew Barron West Bloomfield MI 67 30 29 27:41 8:56/M
6 Darick Vass Monroe MI 477 33 34 28:36 9:14/M
7 Noah Baldwin Toledo OH 58 32 43 30:20 9:47/M
8 Justin Janus Monroe MI 22 34 44 30:22 9:48/M
9 Charles Waldron Monroe MI 490 37 52 33:55 10:56/M
10 David Simon Canton MI 402 33 79 40:23 13:02/M
11 Luke Bisson Monroe MI 94 31 108 1:01:37 19:53/M

Female 40 to 49
Total
Place Name City Bib No Age Overall Time Pace
1 Kimberly Fitzpatrick Monroe MI 143 46 27 27:15 8:47/M
2 Danielle Lambert Newport MI 517 40 42 30:13 9:45/M
3 Sherri Schultz Belleville MI 391 44 48 32:32 10:30/M
4 Debbie Bordeau Lasalle MI 95 42 61 36:39 11:49/M
5 Michele Bruck Monroe MI 111 47 62 37:28 12:05/M
6 Tiffany Mason Monroe MI 202 41 65 38:14 12:20/M
7 Francesca Kelley Dundee MI 186 42 75 39:41 12:48/M
8 Kathy Stringham Monroe MI 448 49 81 40:55 13:12/M
9 Cindy Lamar Monroe MI 499 46 86 46:00 14:50/M
10 Stephanie Pride Monroe MI 37 43 87 46:06 14:52/M
11 Pamela Metdepenningen Monroe MI 241 45 92 47:59 15:29/M
12 Rhonda Bryan Monroe MI 117 47 93 47:59 15:29/M
13 Jodi Stacey Toledo OH 418 42 100 59:57 19:20/M
14 Jayme Richards Rockwood MI 335 48 103 59:58 19:21/M

Male 40 to 49
Total
Place Name City Bib No Age Overall Time Pace
1 Tim Lajiness Newport MI 495 48 8 22:59 7:25/M
2 Bob Huey Monroe MI 179 48 10 23:43 7:39/M
3 Brian Bates Monroe MI 82 42 12 24:21 7:51/M
4 Aaron Schultz Belleville MI 388 49 30 28:01 9:02/M
5 Richard Kenny Temperance MI 187 40 97 59:56 19:20/M

Female 50 to 59
Total
Place Name City Bib No Age Overall Time Pace
1 Donna Heck Monroe MI 21 58 23 26:42 8:37/M
2 Florence Buchanan Monroe MI 3 59 88 46:06 14:52/M
3 Robin Morr Monore MI 245 59 90 47:56 15:28/M
4 Carla Gerhardt Monroe MI 19 59 91 47:57 15:28/M
5 Andrea Gere Monroe MI 157 50 94 50:38 16:20/M
6 Doreen Richards Monroe MI 330 52 95 50:40 16:21/M
7 Diane Lebrun Monroe MI 191 57 99 59:57 19:20/M
8 Deborah Penkin Monroe MI 246 59 104 59:58 19:21/M
9 Laura Hehl Monroe MI 164 57 109 1:05:19 21:04/M

Male 50 to 59
Total
Place Name City Bib No Age Overall Time Pace
1 Thomas Heck Monroe MI 496 58 7 21:42 7:00/M
2 Domingo Valadez Temperance MI 44 53 11 23:50 7:41/M
3 Danny Swindle Newport MI 457 53 13 24:34 7:55/M
4 John Lieto Monroe MI 193 58 20 25:52 8:21/M
5 Bill Sunderland Monroe MI 452 55 21 25:53 8:21/M
6 Patrick Lambrix Ida MI 189 57 24 26:46 8:38/M
7 Steven Capser Monroe MI 129 50 40 29:17 9:27/M
8 Mark McLaughlin Monroe MI 213 56 45 30:38 9:53/M
9 Rod Foshag Newport MI 149 55 57 35:04 11:19/M
10 Dale Stringham Monroe MI 440 54 70 38:24 12:23/M

Male 60 to 69
Total
Place Name City Bib No Age Overall Time Pace
1 David Sliwinski Newport MI 40 61 17 25:36 8:15/M
2 Mike Ewald Monroe MI 494 65 78 40:23 13:02/M

Male 80 & up
Total
Place Name City Bib No Age Overall Time Pace
1 Jerry Richards Monroe MI 339 82 106 59:59 19:21/M


--------------------------------------------------------------------------------